sensor_id;sensor_type;location;lat;lon;timestamp;P1;durP1;ratioP1;P2;durP2;ratioP2
9643;SDS011;4860;50.900;4.720;2023-10-08T00:00:47;0.10;;;0.10;;
9643;SDS011;4860;50.900;4.720;2023-10-08T00:03:21;0.10;;;0.10;;
9643;SDS011;4860;50.900;4.720;2023-10-08T00:05:47;0.10;;;0.10;;
9643;SDS011;4860;50.900;4.720;2023-10-08T00:08:16;0.10;;;0.10;;
9643;SDS011;4860;50.900;4.720;2023-10-08T00:10:43;0.10;;;0.10;;
9643;SDS011;4860;50.900;4.720;2023-10-08T00:13:10;0.10;;;0.10;;
9643;SDS011;4860;50.900;4.720;2023-10-08T00:15:41;0.00;;;0.00;;
9643;SDS011;4860;50.900;4.720;2023-10-08T00:18:21;0.13;;;0.13;;
9643;SDS011;4860;50.900;4.720;2023-10-08T00:20:48;0.10;;;0.10;;
9643;SDS011;4860;50.900;4.720;2023-10-08T00:23:23;0.00;;;0.00;;
9643;SDS011;4860;50.900;4.720;2023-10-08T00:25:53;0.10;;;0.10;;
9643;SDS011;4860;50.900;4.720;2023-10-08T00:28:23;0.10;;;0.10;;
9643;SDS011;4860;50.900;4.720;2023-10-08T00:30:52;0.10;;;0.10;;
9643;SDS011;4860;50.900;4.720;2023-10-08T00:33:20;0.10;;;0.10;;
9643;SDS011;4860;50.900;4.720;2023-10-08T00:35:46;0.10;;;0.10;;
9643;SDS011;4860;50.900;4.720;2023-10-08T00:38:12;0.10;;;0.10;;
9643;SDS011;4860;50.900;4.720;2023-10-08T00:40:45;0.00;;;0.00;;
9643;SDS011;4860;50.900;4.720;2023-10-08T00:46:03;0.10;;;0.10;;
9643;SDS011;4860;50.900;4.720;2023-10-08T00:48:52;0.10;;;0.10;;
9643;SDS011;4860;50.900;4.720;2023-10-08T00:51:20;0.10;;;0.10;;
9643;SDS011;4860;50.900;4.720;2023-10-08T00:53:48;0.10;;;0.10;;
9643;SDS011;4860;50.900;4.720;2023-10-08T00:56:16;0.10;;;0.10;;
9643;SDS011;4860;50.900;4.720;2023-10-08T00:58:45;0.10;;;0.10;;
9643;SDS011;4860;50.900;4.720;2023-10-08T01:01:14;0.10;;;0.10;;
9643;SDS011;4860;50.900;4.720;2023-10-08T01:03:42;0.10;;;0.10;;
9643;SDS011;4860;50.900;4.720;2023-10-08T01:06:10;0.10;;;0.10;;
9643;SDS011;4860;50.900;4.720;2023-10-08T01:08:37;0.10;;;0.10;;
9643;SDS011;4860;50.900;4.720;2023-10-08T01:13:45;0.10;;;0.10;;
9643;SDS011;4860;50.900;4.720;2023-10-08T01:16:12;0.10;;;0.10;;
9643;SDS011;4860;50.900;4.720;2023-10-08T01:18:40;0.10;;;0.10;;
9643;SDS011;4860;50.900;4.720;2023-10-08T01:21:12;0.10;;;0.10;;
9643;SDS011;4860;50.900;4.720;2023-10-08T01:23:54;0.10;;;0.10;;
9643;SDS011;4860;50.900;4.720;2023-10-08T01:26:21;0.10;;;0.10;;
9643;SDS011;4860;50.900;4.720;2023-10-08T01:28:48;0.10;;;0.10;;
9643;SDS011;4860;50.900;4.720;2023-10-08T01:31:14;0.10;;;0.10;;
9643;SDS011;4860;50.900;4.720;2023-10-08T01:33:40;0.10;;;0.10;;
9643;SDS011;4860;50.900;4.720;2023-10-08T01:36:15;0.10;;;0.10;;
9643;SDS011;4860;50.900;4.720;2023-10-08T01:38:41;0.10;;;0.10;;
9643;SDS011;4860;50.900;4.720;2023-10-08T01:41:08;0.10;;;0.10;;
9643;SDS011;4860;50.900;4.720;2023-10-08T01:43:47;0.10;;;0.10;;
9643;SDS011;4860;50.900;4.720;2023-10-08T01:46:17;0.10;;;0.10;;
9643;SDS011;4860;50.900;4.720;2023-10-08T01:48:47;0.10;;;0.10;;
9643;SDS011;4860;50.900;4.720;2023-10-08T01:51:18;0.10;;;0.10;;
9643;SDS011;4860;50.900;4.720;2023-10-08T01:53:51;0.10;;;0.10;;
9643;SDS011;4860;50.900;4.720;2023-10-08T01:56:19;0.00;;;0.00;;
9643;SDS011;4860;50.900;4.720;2023-10-08T01:58:45;0.10;;;0.10;;
9643;SDS011;4860;50.900;4.720;2023-10-08T02:01:11;0.10;;;0.10;;
9643;SDS011;4860;50.900;4.720;2023-10-08T02:03:41;0.10;;;0.10;;
9643;SDS011;4860;50.900;4.720;2023-10-08T02:06:07;0.10;;;0.10;;
9643;SDS011;4860;50.900;4.720;2023-10-08T02:08:33;0.10;;;0.10;;
9643;SDS011;4860;50.900;4.720;2023-10-08T02:11:00;0.10;;;0.10;;
9643;SDS011;4860;50.900;4.720;2023-10-08T02:13:30;0.10;;;0.10;;
9643;SDS011;4860;50.900;4.720;2023-10-08T02:15:59;0.10;;;0.10;;
9643;SDS011;4860;50.900;4.720;2023-10-08T02:18:27;0.10;;;0.10;;
9643;SDS011;4860;50.900;4.720;2023-10-08T02:20:54;0.10;;;0.10;;
9643;SDS011;4860;50.900;4.720;2023-10-08T02:23:21;0.10;;;0.10;;
9643;SDS011;4860;50.900;4.720;2023-10-08T02:25:47;0.10;;;0.10;;
9643;SDS011;4860;50.900;4.720;2023-10-08T02:28:13;0.10;;;0.10;;
9643;SDS011;4860;50.900;4.720;2023-10-08T02:30:45;0.10;;;0.10;;
9643;SDS011;4860;50.900;4.720;2023-10-08T02:33:11;0.10;;;0.10;;
9643;SDS011;4860;50.900;4.720;2023-10-08T02:35:41;0.10;;;0.10;;
9643;SDS011;4860;50.900;4.720;2023-10-08T02:38:10;0.10;;;0.10;;
9643;SDS011;4860;50.900;4.720;2023-10-08T02:40:43;0.10;;;0.10;;
9643;SDS011;4860;50.900;4.720;2023-10-08T02:43:11;0.10;;;0.10;;
9643;SDS011;4860;50.900;4.720;2023-10-08T02:45:40;0.10;;;0.10;;
9643;SDS011;4860;50.900;4.720;2023-10-08T02:48:07;0.10;;;0.10;;
9643;SDS011;4860;50.900;4.720;2023-10-08T02:50:44;0.10;;;0.10;;
9643;SDS011;4860;50.900;4.720;2023-10-08T02:53:11;0.10;;;0.10;;
9643;SDS011;4860;50.900;4.720;2023-10-08T02:55:40;0.10;;;0.10;;
9643;SDS011;4860;50.900;4.720;2023-10-08T02:58:13;0.08;;;0.08;;
9643;SDS011;4860;50.900;4.720;2023-10-08T03:00:43;0.10;;;0.10;;
9643;SDS011;4860;50.900;4.720;2023-10-08T03:03:11;0.10;;;0.10;;
9643;SDS011;4860;50.900;4.720;2023-10-08T03:05:43;0.10;;;0.10;;
9643;SDS011;4860;50.900;4.720;2023-10-08T03:08:11;0.10;;;0.10;;
9643;SDS011;4860;50.900;4.720;2023-10-08T03:10:38;0.10;;;0.10;;
9643;SDS011;4860;50.900;4.720;2023-10-08T03:13:07;0.10;;;0.10;;
9643;SDS011;4860;50.900;4.720;2023-10-08T03:15:35;0.10;;;0.10;;
9643;SDS011;4860;50.900;4.720;2023-10-08T03:18:13;0.10;;;0.10;;
9643;SDS011;4860;50.900;4.720;2023-10-08T03:20:40;0.10;;;0.10;;
9643;SDS011;4860;50.900;4.720;2023-10-08T03:23:12;0.10;;;0.10;;
9643;SDS011;4860;50.900;4.720;2023-10-08T03:25:55;0.10;;;0.10;;
9643;SDS011;4860;50.900;4.720;2023-10-08T03:28:29;0.10;;;0.10;;
9643;SDS011;4860;50.900;4.720;2023-10-08T03:30:59;0.10;;;0.10;;
9643;SDS011;4860;50.900;4.720;2023-10-08T03:33:39;0.10;;;0.10;;
9643;SDS011;4860;50.900;4.720;2023-10-08T03:36:06;0.10;;;0.10;;
9643;SDS011;4860;50.900;4.720;2023-10-08T03:38:59;0.10;;;0.10;;
9643;SDS011;4860;50.900;4.720;2023-10-08T03:41:36;0.10;;;0.10;;
9643;SDS011;4860;50.900;4.720;2023-10-08T03:44:05;0.10;;;0.10;;
9643;SDS011;4860;50.900;4.720;2023-10-08T03:46:37;0.10;;;0.10;;
9643;SDS011;4860;50.900;4.720;2023-10-08T03:49:12;0.10;;;0.10;;
9643;SDS011;4860;50.900;4.720;2023-10-08T03:51:47;0.10;;;0.10;;
9643;SDS011;4860;50.900;4.720;2023-10-08T03:54:17;0.10;;;0.10;;
9643;SDS011;4860;50.900;4.720;2023-10-08T03:56:44;0.10;;;0.10;;
9643;SDS011;4860;50.900;4.720;2023-10-08T03:59:14;0.10;;;0.10;;
9643;SDS011;4860;50.900;4.720;2023-10-08T04:02:00;0.10;;;0.10;;
9643;SDS011;4860;50.900;4.720;2023-10-08T04:04:39;0.10;;;0.10;;
9643;SDS011;4860;50.900;4.720;2023-10-08T04:07:24;0.10;;;0.10;;
9643;SDS011;4860;50.900;4.720;2023-10-08T04:09:57;0.00;;;0.00;;
9643;SDS011;4860;50.900;4.720;2023-10-08T04:12:36;0.10;;;0.10;;
9643;SDS011;4860;50.900;4.720;2023-10-08T04:15:09;0.10;;;0.10;;
9643;SDS011;4860;50.900;4.720;2023-10-08T04:17:40;0.10;;;0.10;;
9643;SDS011;4860;50.900;4.720;2023-10-08T04:20:13;0.10;;;0.10;;
9643;SDS011;4860;50.900;4.720;2023-10-08T04:23:02;0.00;;;0.00;;
9643;SDS011;4860;50.900;4.720;2023-10-08T04:25:30;0.10;;;0.10;;
9643;SDS011;4860;50.900;4.720;2023-10-08T04:27:57;0.10;;;0.10;;
9643;SDS011;4860;50.900;4.720;2023-10-08T04:30:41;0.20;;;0.20;;
9643;SDS011;4860;50.900;4.720;2023-10-08T04:33:08;0.10;;;0.10;;
9643;SDS011;4860;50.900;4.720;2023-10-08T04:35:38;0.10;;;0.10;;
9643;SDS011;4860;50.900;4.720;2023-10-08T04:38:23;0.10;;;0.10;;
9643;SDS011;4860;50.900;4.720;2023-10-08T04:40:53;0.10;;;0.10;;
9643;SDS011;4860;50.900;4.720;2023-10-08T04:43:23;0.10;;;0.10;;
9643;SDS011;4860;50.900;4.720;2023-10-08T04:45:56;0.10;;;0.10;;
9643;SDS011;4860;50.900;4.720;2023-10-08T04:48:25;0.10;;;0.10;;
9643;SDS011;4860;50.900;4.720;2023-10-08T04:50:56;0.10;;;0.10;;
9643;SDS011;4860;50.900;4.720;2023-10-08T04:53:27;0.17;;;0.17;;
9643;SDS011;4860;50.900;4.720;2023-10-08T04:56:10;0.10;;;0.10;;
9643;SDS011;4860;50.900;4.720;2023-10-08T04:58:39;0.10;;;0.10;;
9643;SDS011;4860;50.900;4.720;2023-10-08T05:01:09;0.10;;;0.10;;
9643;SDS011;4860;50.900;4.720;2023-10-08T05:03:54;0.13;;;0.13;;
9643;SDS011;4860;50.900;4.720;2023-10-08T05:06:24;0.20;;;0.20;;
9643;SDS011;4860;50.900;4.720;2023-10-08T05:09:02;0.10;;;0.10;;
9643;SDS011;4860;50.900;4.720;2023-10-08T05:11:52;0.13;;;0.13;;
9643;SDS011;4860;50.900;4.720;2023-10-08T05:14:22;0.13;;;0.13;;
9643;SDS011;4860;50.900;4.720;2023-10-08T05:17:01;0.10;;;0.10;;
9643;SDS011;4860;50.900;4.720;2023-10-08T05:19:43;0.10;;;0.10;;
9643;SDS011;4860;50.900;4.720;2023-10-08T05:22:28;0.00;;;0.00;;
9643;SDS011;4860;50.900;4.720;2023-10-08T05:24:58;0.20;;;0.20;;
9643;SDS011;4860;50.900;4.720;2023-10-08T05:27:33;0.20;;;0.20;;
9643;SDS011;4860;50.900;4.720;2023-10-08T05:30:27;0.20;;;0.20;;
9643;SDS011;4860;50.900;4.720;2023-10-08T05:32:57;0.10;;;0.10;;
9643;SDS011;4860;50.900;4.720;2023-10-08T05:35:49;0.15;;;0.15;;
9643;SDS011;4860;50.900;4.720;2023-10-08T05:38:21;0.20;;;0.20;;
9643;SDS011;4860;50.900;4.720;2023-10-08T05:40:48;0.10;;;0.10;;
9643;SDS011;4860;50.900;4.720;2023-10-08T05:43:34;0.20;;;0.20;;
9643;SDS011;4860;50.900;4.720;2023-10-08T05:46:06;0.10;;;0.10;;
9643;SDS011;4860;50.900;4.720;2023-10-08T05:48:55;0.10;;;0.10;;
9643;SDS011;4860;50.900;4.720;2023-10-08T05:51:32;0.10;;;0.10;;
9643;SDS011;4860;50.900;4.720;2023-10-08T05:54:11;0.10;;;0.10;;
9643;SDS011;4860;50.900;4.720;2023-10-08T05:56:58;0.10;;;0.10;;
9643;SDS011;4860;50.900;4.720;2023-10-08T06:02:25;0.10;;;0.10;;
9643;SDS011;4860;50.900;4.720;2023-10-08T06:04:56;0.10;;;0.10;;
9643;SDS011;4860;50.900;4.720;2023-10-08T06:07:42;0.10;;;0.10;;
9643;SDS011;4860;50.900;4.720;2023-10-08T06:10:21;0.15;;;0.15;;
9643;SDS011;4860;50.900;4.720;2023-10-08T06:13:09;0.10;;;0.10;;
9643;SDS011;4860;50.900;4.720;2023-10-08T06:15:42;0.10;;;0.10;;
9643;SDS011;4860;50.900;4.720;2023-10-08T06:20:53;0.10;;;0.10;;
9643;SDS011;4860;50.900;4.720;2023-10-08T06:23:20;0.15;;;0.15;;
9643;SDS011;4860;50.900;4.720;2023-10-08T06:25:51;0.10;;;0.10;;
9643;SDS011;4860;50.900;4.720;2023-10-08T06:28:31;0.10;;;0.10;;
9643;SDS011;4860;50.900;4.720;2023-10-08T06:31:00;0.20;;;0.20;;
9643;SDS011;4860;50.900;4.720;2023-10-08T06:33:28;0.10;;;0.10;;
9643;SDS011;4860;50.900;4.720;2023-10-08T06:36:01;0.10;;;0.10;;
9643;SDS011;4860;50.900;4.720;2023-10-08T06:38:31;0.10;;;0.10;;
9643;SDS011;4860;50.900;4.720;2023-10-08T06:40:58;0.20;;;0.20;;
9643;SDS011;4860;50.900;4.720;2023-10-08T06:43:40;0.10;;;0.10;;
9643;SDS011;4860;50.900;4.720;2023-10-08T06:46:10;0.10;;;0.10;;
9643;SDS011;4860;50.900;4.720;2023-10-08T06:48:39;0.10;;;0.10;;
9643;SDS011;4860;50.900;4.720;2023-10-08T06:51:09;0.10;;;0.10;;
9643;SDS011;4860;50.900;4.720;2023-10-08T06:53:43;0.10;;;0.10;;
9643;SDS011;4860;50.900;4.720;2023-10-08T06:56:10;0.10;;;0.10;;
9643;SDS011;4860;50.900;4.720;2023-10-08T06:58:38;0.10;;;0.10;;
9643;SDS011;4860;50.900;4.720;2023-10-08T07:01:05;0.10;;;0.10;;
9643;SDS011;4860;50.900;4.720;2023-10-08T07:03:33;0.10;;;0.10;;
9643;SDS011;4860;50.900;4.720;2023-10-08T07:06:00;0.10;;;0.10;;
9643;SDS011;4860;50.900;4.720;2023-10-08T07:08:31;0.10;;;0.10;;
9643;SDS011;4860;50.900;4.720;2023-10-08T07:10:58;0.10;;;0.10;;
9643;SDS011;4860;50.900;4.720;2023-10-08T07:13:26;0.00;;;0.00;;
9643;SDS011;4860;50.900;4.720;2023-10-08T07:15:54;0.10;;;0.10;;
9643;SDS011;4860;50.900;4.720;2023-10-08T07:18:20;0.10;;;0.10;;
9643;SDS011;4860;50.900;4.720;2023-10-08T07:20:53;0.10;;;0.10;;
9643;SDS011;4860;50.900;4.720;2023-10-08T07:23:20;0.10;;;0.10;;
9643;SDS011;4860;50.900;4.720;2023-10-08T07:26:00;0.10;;;0.10;;
9643;SDS011;4860;50.900;4.720;2023-10-08T07:28:43;0.10;;;0.10;;
9643;SDS011;4860;50.900;4.720;2023-10-08T07:31:13;0.10;;;0.10;;
9643;SDS011;4860;50.900;4.720;2023-10-08T07:33:47;0.10;;;0.10;;
9643;SDS011;4860;50.900;4.720;2023-10-08T07:36:19;0.10;;;0.10;;
9643;SDS011;4860;50.900;4.720;2023-10-08T07:38:45;0.10;;;0.10;;
9643;SDS011;4860;50.900;4.720;2023-10-08T07:41:12;0.10;;;0.10;;
9643;SDS011;4860;50.900;4.720;2023-10-08T07:43:43;0.10;;;0.10;;
9643;SDS011;4860;50.900;4.720;2023-10-08T07:46:11;0.10;;;0.10;;
9643;SDS011;4860;50.900;4.720;2023-10-08T07:48:40;0.10;;;0.10;;
9643;SDS011;4860;50.900;4.720;2023-10-08T07:51:09;0.10;;;0.10;;
9643;SDS011;4860;50.900;4.720;2023-10-08T07:53:35;0.10;;;0.10;;
9643;SDS011;4860;50.900;4.720;2023-10-08T07:56:06;0.10;;;0.10;;
9643;SDS011;4860;50.900;4.720;2023-10-08T07:58:33;0.10;;;0.10;;
9643;SDS011;4860;50.900;4.720;2023-10-08T08:01:06;0.10;;;0.10;;
9643;SDS011;4860;50.900;4.720;2023-10-08T08:03:38;0.10;;;0.10;;
9643;SDS011;4860;50.900;4.720;2023-10-08T08:06:07;0.10;;;0.10;;
9643;SDS011;4860;50.900;4.720;2023-10-08T08:08:34;0.10;;;0.10;;
9643;SDS011;4860;50.900;4.720;2023-10-08T08:11:10;0.10;;;0.10;;
9643;SDS011;4860;50.900;4.720;2023-10-08T08:13:43;0.10;;;0.10;;
9643;SDS011;4860;50.900;4.720;2023-10-08T08:16:10;0.10;;;0.10;;
9643;SDS011;4860;50.900;4.720;2023-10-08T08:18:47;0.10;;;0.10;;
9643;SDS011;4860;50.900;4.720;2023-10-08T08:21:24;0.10;;;0.10;;
9643;SDS011;4860;50.900;4.720;2023-10-08T08:23:51;0.00;;;0.00;;
9643;SDS011;4860;50.900;4.720;2023-10-08T08:26:22;0.10;;;0.10;;
9643;SDS011;4860;50.900;4.720;2023-10-08T08:28:55;0.10;;;0.10;;
9643;SDS011;4860;50.900;4.720;2023-10-08T08:31:22;0.10;;;0.10;;
9643;SDS011;4860;50.900;4.720;2023-10-08T08:33:48;0.10;;;0.10;;
9643;SDS011;4860;50.900;4.720;2023-10-08T08:36:46;0.10;;;0.10;;
9643;SDS011;4860;50.900;4.720;2023-10-08T08:39:18;0.10;;;0.10;;
9643;SDS011;4860;50.900;4.720;2023-10-08T08:42:00;0.10;;;0.10;;
9643;SDS011;4860;50.900;4.720;2023-10-08T08:44:36;0.10;;;0.10;;
9643;SDS011;4860;50.900;4.720;2023-10-08T08:47:09;0.08;;;0.08;;
9643;SDS011;4860;50.900;4.720;2023-10-08T08:49:39;0.10;;;0.10;;
9643;SDS011;4860;50.900;4.720;2023-10-08T08:52:08;0.10;;;0.10;;
9643;SDS011;4860;50.900;4.720;2023-10-08T08:54:34;0.10;;;0.10;;
9643;SDS011;4860;50.900;4.720;2023-10-08T08:57:03;0.10;;;0.10;;
9643;SDS011;4860;50.900;4.720;2023-10-08T08:59:30;0.10;;;0.10;;
9643;SDS011;4860;50.900;4.720;2023-10-08T09:01:59;0.10;;;0.10;;
9643;SDS011;4860;50.900;4.720;2023-10-08T09:04:29;0.10;;;0.10;;
9643;SDS011;4860;50.900;4.720;2023-10-08T09:06:56;0.10;;;0.10;;
9643;SDS011;4860;50.900;4.720;2023-10-08T09:09:23;0.05;;;0.05;;
9643;SDS011;4860;50.900;4.720;2023-10-08T09:11:49;0.10;;;0.10;;
9643;SDS011;4860;50.900;4.720;2023-10-08T09:14:21;0.00;;;0.00;;
9643;SDS011;4860;50.900;4.720;2023-10-08T09:16:48;0.10;;;0.10;;
9643;SDS011;4860;50.900;4.720;2023-10-08T09:19:15;0.03;;;0.03;;
9643;SDS011;4860;50.900;4.720;2023-10-08T09:24:35;0.10;;;0.10;;
9643;SDS011;4860;50.900;4.720;2023-10-08T09:27:02;0.00;;;0.00;;
9643;SDS011;4860;50.900;4.720;2023-10-08T09:29:28;0.10;;;0.10;;
9643;SDS011;4860;50.900;4.720;2023-10-08T09:31:57;0.10;;;0.10;;
9643;SDS011;4860;50.900;4.720;2023-10-08T09:34:29;0.10;;;0.10;;
9643;SDS011;4860;50.900;4.720;2023-10-08T09:36:57;0.00;;;0.00;;
9643;SDS011;4860;50.900;4.720;2023-10-08T09:39:25;0.10;;;0.10;;
9643;SDS011;4860;50.900;4.720;2023-10-08T09:41:54;0.10;;;0.10;;
9643;SDS011;4860;50.900;4.720;2023-10-08T09:44:21;0.00;;;0.00;;
9643;SDS011;4860;50.900;4.720;2023-10-08T09:46:52;0.08;;;0.08;;
9643;SDS011;4860;50.900;4.720;2023-10-08T09:49:21;0.10;;;0.10;;
9643;SDS011;4860;50.900;4.720;2023-10-08T09:51:49;0.03;;;0.03;;
9643;SDS011;4860;50.900;4.720;2023-10-08T09:54:29;0.10;;;0.10;;
9643;SDS011;4860;50.900;4.720;2023-10-08T09:57:03;0.10;;;0.10;;
9643;SDS011;4860;50.900;4.720;2023-10-08T09:59:32;0.10;;;0.10;;
9643;SDS011;4860;50.900;4.720;2023-10-08T10:01:59;0.00;;;0.00;;
9643;SDS011;4860;50.900;4.720;2023-10-08T10:04:29;0.10;;;0.10;;
9643;SDS011;4860;50.900;4.720;2023-10-08T10:06:57;0.10;;;0.10;;
9643;SDS011;4860;50.900;4.720;2023-10-08T10:09:24;0.10;;;0.10;;
9643;SDS011;4860;50.900;4.720;2023-10-08T10:11:51;0.00;;;0.00;;
9643;SDS011;4860;50.900;4.720;2023-10-08T10:14:18;0.00;;;0.00;;
9643;SDS011;4860;50.900;4.720;2023-10-08T10:16:48;0.10;;;0.10;;
9643;SDS011;4860;50.900;4.720;2023-10-08T10:19:17;0.00;;;0.00;;
9643;SDS011;4860;50.900;4.720;2023-10-08T10:21:43;0.00;;;0.00;;
9643;SDS011;4860;50.900;4.720;2023-10-08T10:24:32;0.00;;;0.00;;
9643;SDS011;4860;50.900;4.720;2023-10-08T10:27:12;0.00;;;0.00;;
9643;SDS011;4860;50.900;4.720;2023-10-08T10:29:40;0.00;;;0.00;;
9643;SDS011;4860;50.900;4.720;2023-10-08T10:32:10;0.00;;;0.00;;
9643;SDS011;4860;50.900;4.720;2023-10-08T10:34:38;0.00;;;0.00;;
9643;SDS011;4860;50.900;4.720;2023-10-08T10:37:04;0.08;;;0.08;;
9643;SDS011;4860;50.900;4.720;2023-10-08T10:39:35;0.00;;;0.00;;
9643;SDS011;4860;50.900;4.720;2023-10-08T10:42:07;0.08;;;0.08;;
9643;SDS011;4860;50.900;4.720;2023-10-08T10:44:45;0.00;;;0.00;;
9643;SDS011;4860;50.900;4.720;2023-10-08T10:47:14;0.00;;;0.00;;
9643;SDS011;4860;50.900;4.720;2023-10-08T10:49:41;0.00;;;0.00;;
9643;SDS011;4860;50.900;4.720;2023-10-08T10:52:17;0.00;;;0.00;;
9643;SDS011;4860;50.900;4.720;2023-10-08T10:54:57;0.00;;;0.00;;
9643;SDS011;4860;50.900;4.720;2023-10-08T10:57:31;0.10;;;0.10;;
9643;SDS011;4860;50.900;4.720;2023-10-08T11:00:02;0.00;;;0.00;;
9643;SDS011;4860;50.900;4.720;2023-10-08T11:02:44;0.00;;;0.00;;
9643;SDS011;4860;50.900;4.720;2023-10-08T11:05:14;0.00;;;0.00;;
9643;SDS011;4860;50.900;4.720;2023-10-08T11:07:45;0.00;;;0.00;;
9643;SDS011;4860;50.900;4.720;2023-10-08T11:10:13;0.00;;;0.00;;
9643;SDS011;4860;50.900;4.720;2023-10-08T11:12:41;0.00;;;0.00;;
9643;SDS011;4860;50.900;4.720;2023-10-08T11:15:12;0.00;;;0.00;;
9643;SDS011;4860;50.900;4.720;2023-10-08T11:17:41;0.00;;;0.00;;
9643;SDS011;4860;50.900;4.720;2023-10-08T11:20:24;0.00;;;0.00;;
9643;SDS011;4860;50.900;4.720;2023-10-08T11:22:50;0.00;;;0.00;;
9643;SDS011;4860;50.900;4.720;2023-10-08T11:25:20;0.00;;;0.00;;
9643;SDS011;4860;50.900;4.720;2023-10-08T11:27:50;0.00;;;0.00;;
9643;SDS011;4860;50.900;4.720;2023-10-08T11:30:24;0.00;;;0.00;;
9643;SDS011;4860;50.900;4.720;2023-10-08T11:32:55;0.00;;;0.00;;
9643;SDS011;4860;50.900;4.720;2023-10-08T11:35:21;0.00;;;0.00;;
9643;SDS011;4860;50.900;4.720;2023-10-08T11:37:48;0.10;;;0.10;;
9643;SDS011;4860;50.900;4.720;2023-10-08T11:40:25;0.00;;;0.00;;
9643;SDS011;4860;50.900;4.720;2023-10-08T11:42:54;0.00;;;0.00;;
9643;SDS011;4860;50.900;4.720;2023-10-08T11:45:22;0.00;;;0.00;;
9643;SDS011;4860;50.900;4.720;2023-10-08T11:47:54;0.00;;;0.00;;
9643;SDS011;4860;50.900;4.720;2023-10-08T11:50:24;0.00;;;0.00;;
9643;SDS011;4860;50.900;4.720;2023-10-08T11:52:57;0.00;;;0.00;;
9643;SDS011;4860;50.900;4.720;2023-10-08T11:55:27;0.00;;;0.00;;
9643;SDS011;4860;50.900;4.720;2023-10-08T11:57:53;0.00;;;0.00;;
9643;SDS011;4860;50.900;4.720;2023-10-08T12:00:20;0.00;;;0.00;;
9643;SDS011;4860;50.900;4.720;2023-10-08T12:02:50;0.00;;;0.00;;
9643;SDS011;4860;50.900;4.720;2023-10-08T12:05:19;0.00;;;0.00;;
9643;SDS011;4860;50.900;4.720;2023-10-08T12:07:49;0.00;;;0.00;;
9643;SDS011;4860;50.900;4.720;2023-10-08T12:10:23;0.00;;;0.00;;
9643;SDS011;4860;50.900;4.720;2023-10-08T12:12:49;0.00;;;0.00;;
9643;SDS011;4860;50.900;4.720;2023-10-08T12:15:20;0.00;;;0.00;;
9643;SDS011;4860;50.900;4.720;2023-10-08T12:17:47;0.00;;;0.00;;
9643;SDS011;4860;50.900;4.720;2023-10-08T12:20:32;0.00;;;0.00;;
9643;SDS011;4860;50.900;4.720;2023-10-08T12:23:00;0.05;;;0.05;;
9643;SDS011;4860;50.900;4.720;2023-10-08T12:25:26;0.00;;;0.00;;
9643;SDS011;4860;50.900;4.720;2023-10-08T12:27:53;0.00;;;0.00;;
9643;SDS011;4860;50.900;4.720;2023-10-08T12:30:19;0.00;;;0.00;;
9643;SDS011;4860;50.900;4.720;2023-10-08T12:32:55;0.00;;;0.00;;
9643;SDS011;4860;50.900;4.720;2023-10-08T12:35:22;0.00;;;0.00;;
9643;SDS011;4860;50.900;4.720;2023-10-08T12:37:49;0.00;;;0.00;;
9643;SDS011;4860;50.900;4.720;2023-10-08T12:40:16;0.00;;;0.00;;
9643;SDS011;4860;50.900;4.720;2023-10-08T12:42:48;0.00;;;0.00;;
9643;SDS011;4860;50.900;4.720;2023-10-08T12:45:15;0.00;;;0.00;;
9643;SDS011;4860;50.900;4.720;2023-10-08T12:50:16;0.00;;;0.00;;
9643;SDS011;4860;50.900;4.720;2023-10-08T12:52:43;0.00;;;0.00;;
9643;SDS011;4860;50.900;4.720;2023-10-08T12:55:19;0.00;;;0.00;;
9643;SDS011;4860;50.900;4.720;2023-10-08T12:58:08;0.00;;;0.00;;
9643;SDS011;4860;50.900;4.720;2023-10-08T13:00:38;0.00;;;0.00;;
9643;SDS011;4860;50.900;4.720;2023-10-08T13:03:06;0.00;;;0.00;;
9643;SDS011;4860;50.900;4.720;2023-10-08T13:05:43;0.00;;;0.00;;
9643;SDS011;4860;50.900;4.720;2023-10-08T13:08:10;0.00;;;0.00;;
9643;SDS011;4860;50.900;4.720;2023-10-08T13:10:39;0.00;;;0.00;;
9643;SDS011;4860;50.900;4.720;2023-10-08T13:13:09;0.00;;;0.00;;
9643;SDS011;4860;50.900;4.720;2023-10-08T13:15:36;0.00;;;0.00;;
9643;SDS011;4860;50.900;4.720;2023-10-08T13:18:02;0.00;;;0.00;;
9643;SDS011;4860;50.900;4.720;2023-10-08T13:20:29;0.00;;;0.00;;
9643;SDS011;4860;50.900;4.720;2023-10-08T13:23:02;0.00;;;0.00;;
9643;SDS011;4860;50.900;4.720;2023-10-08T13:25:31;0.00;;;0.00;;
9643;SDS011;4860;50.900;4.720;2023-10-08T13:28:01;0.00;;;0.00;;
9643;SDS011;4860;50.900;4.720;2023-10-08T13:30:28;0.00;;;0.00;;
9643;SDS011;4860;50.900;4.720;2023-10-08T13:32:54;0.00;;;0.00;;
9643;SDS011;4860;50.900;4.720;2023-10-08T13:35:20;0.00;;;0.00;;
9643;SDS011;4860;50.900;4.720;2023-10-08T13:37:47;0.00;;;0.00;;
9643;SDS011;4860;50.900;4.720;2023-10-08T13:40:13;0.00;;;0.00;;
9643;SDS011;4860;50.900;4.720;2023-10-08T13:42:44;0.00;;;0.00;;
9643;SDS011;4860;50.900;4.720;2023-10-08T13:45:10;0.00;;;0.00;;
9643;SDS011;4860;50.900;4.720;2023-10-08T13:47:51;0.00;;;0.00;;
9643;SDS011;4860;50.900;4.720;2023-10-08T13:50:17;0.00;;;0.00;;
9643;SDS011;4860;50.900;4.720;2023-10-08T13:52:43;0.00;;;0.00;;
9643;SDS011;4860;50.900;4.720;2023-10-08T13:55:10;0.00;;;0.00;;
9643;SDS011;4860;50.900;4.720;2023-10-08T13:57:39;0.00;;;0.00;;
9643;SDS011;4860;50.900;4.720;2023-10-08T14:00:08;0.00;;;0.00;;
9643;SDS011;4860;50.900;4.720;2023-10-08T14:02:43;0.00;;;0.00;;
9643;SDS011;4860;50.900;4.720;2023-10-08T14:05:10;0.00;;;0.00;;
9643;SDS011;4860;50.900;4.720;2023-10-08T14:07:40;0.00;;;0.00;;
9643;SDS011;4860;50.900;4.720;2023-10-08T14:10:09;0.00;;;0.00;;
9643;SDS011;4860;50.900;4.720;2023-10-08T14:12:44;0.00;;;0.00;;
9643;SDS011;4860;50.900;4.720;2023-10-08T14:15:14;0.00;;;0.00;;
9643;SDS011;4860;50.900;4.720;2023-10-08T14:17:42;0.00;;;0.00;;
9643;SDS011;4860;50.900;4.720;2023-10-08T14:20:09;0.00;;;0.00;;
9643;SDS011;4860;50.900;4.720;2023-10-08T14:22:38;0.00;;;0.00;;
9643;SDS011;4860;50.900;4.720;2023-10-08T14:25:09;0.00;;;0.00;;
9643;SDS011;4860;50.900;4.720;2023-10-08T14:27:37;0.00;;;0.00;;
9643;SDS011;4860;50.900;4.720;2023-10-08T14:30:17;0.00;;;0.00;;
9643;SDS011;4860;50.900;4.720;2023-10-08T14:32:46;0.00;;;0.00;;
9643;SDS011;4860;50.900;4.720;2023-10-08T14:35:13;0.00;;;0.00;;
9643;SDS011;4860;50.900;4.720;2023-10-08T14:38:01;0.00;;;0.00;;
9643;SDS011;4860;50.900;4.720;2023-10-08T14:40:46;0.00;;;0.00;;
9643;SDS011;4860;50.900;4.720;2023-10-08T14:43:31;0.00;;;0.00;;
9643;SDS011;4860;50.900;4.720;2023-10-08T14:46:02;0.00;;;0.00;;
9643;SDS011;4860;50.900;4.720;2023-10-08T14:48:31;0.00;;;0.00;;
9643;SDS011;4860;50.900;4.720;2023-10-08T14:51:00;0.00;;;0.00;;
9643;SDS011;4860;50.900;4.720;2023-10-08T14:53:28;0.00;;;0.00;;
9643;SDS011;4860;50.900;4.720;2023-10-08T14:55:59;0.00;;;0.00;;
9643;SDS011;4860;50.900;4.720;2023-10-08T14:58:29;0.00;;;0.00;;
9643;SDS011;4860;50.900;4.720;2023-10-08T15:00:55;0.00;;;0.00;;
9643;SDS011;4860;50.900;4.720;2023-10-08T15:03:21;0.00;;;0.00;;
9643;SDS011;4860;50.900;4.720;2023-10-08T15:05:47;0.00;;;0.00;;
9643;SDS011;4860;50.900;4.720;2023-10-08T15:08:15;0.00;;;0.00;;
9643;SDS011;4860;50.900;4.720;2023-10-08T15:10:43;0.00;;;0.00;;
9643;SDS011;4860;50.900;4.720;2023-10-08T15:13:12;0.00;;;0.00;;
9643;SDS011;4860;50.900;4.720;2023-10-08T15:15:38;0.00;;;0.00;;
9643;SDS011;4860;50.900;4.720;2023-10-08T15:18:05;0.00;;;0.00;;
9643;SDS011;4860;50.900;4.720;2023-10-08T15:20:31;0.00;;;0.00;;
9643;SDS011;4860;50.900;4.720;2023-10-08T15:22:59;0.00;;;0.00;;
9643;SDS011;4860;50.900;4.720;2023-10-08T15:25:25;0.00;;;0.00;;
9643;SDS011;4860;50.900;4.720;2023-10-08T15:27:51;0.00;;;0.00;;
9643;SDS011;4860;50.900;4.720;2023-10-08T15:30:18;0.00;;;0.00;;
9643;SDS011;4860;50.900;4.720;2023-10-08T15:32:45;0.00;;;0.00;;
9643;SDS011;4860;50.900;4.720;2023-10-08T15:35:18;0.00;;;0.00;;
9643;SDS011;4860;50.900;4.720;2023-10-08T15:37:50;0.00;;;0.00;;
9643;SDS011;4860;50.900;4.720;2023-10-08T15:40:17;0.00;;;0.00;;
9643;SDS011;4860;50.900;4.720;2023-10-08T15:42:48;0.00;;;0.00;;
9643;SDS011;4860;50.900;4.720;2023-10-08T15:45:17;0.00;;;0.00;;
9643;SDS011;4860;50.900;4.720;2023-10-08T15:47:44;0.00;;;0.00;;
9643;SDS011;4860;50.900;4.720;2023-10-08T15:50:11;0.00;;;0.00;;
9643;SDS011;4860;50.900;4.720;2023-10-08T15:52:37;0.00;;;0.00;;
9643;SDS011;4860;50.900;4.720;2023-10-08T15:55:04;0.00;;;0.00;;